createdAt,value
2022-11-24T00:00:37.091Z,99.90
2022-11-24T00:03:41.688Z,99.90
2022-11-24T00:06:44.921Z,99.90
2022-11-24T00:09:48.080Z,99.90
2022-11-24T00:12:51.201Z,99.90
2022-11-24T00:15:54.321Z,99.90
2022-11-24T00:19:00.453Z,99.90
2022-11-24T00:22:03.622Z,99.90
2022-11-24T00:25:07.490Z,99.90
2022-11-24T00:28:10.619Z,99.90
2022-11-24T00:31:19.411Z,99.90
2022-11-24T00:34:24.092Z,99.90
2022-11-24T00:37:27.301Z,99.90
2022-11-24T00:40:34.845Z,99.90
2022-11-24T00:43:38.319Z,99.90
2022-11-24T00:46:41.587Z,99.90
2022-11-24T00:49:46.258Z,99.90
2022-11-24T00:52:49.420Z,99.90
2022-11-24T00:55:52.902Z,99.90
2022-11-24T00:58:56.257Z,99.90
2022-11-24T01:01:59.507Z,99.90
2022-11-24T01:05:04.186Z,99.90
2022-11-24T01:08:07.847Z,99.90
2022-11-24T01:11:12.886Z,99.90
2022-11-24T01:14:16.053Z,99.90
2022-11-24T01:17:19.389Z,99.90
2022-11-24T01:20:23.965Z,99.90
2022-11-24T01:23:27.124Z,99.90
2022-11-24T01:26:30.298Z,99.90
2022-11-24T01:29:33.574Z,99.90
2022-11-24T01:32:37.474Z,99.90
2022-11-24T01:35:41.998Z,99.90
2022-11-24T01:38:45.167Z,99.90
2022-11-24T01:41:48.295Z,99.90
2022-11-24T01:45:14.865Z,99.90
2022-11-24T01:48:27.447Z,99.90
2022-11-24T01:51:36.005Z,99.90
2022-11-24T01:54:42.977Z,99.90
2022-11-24T01:57:50.230Z,99.90
2022-11-24T02:00:54.265Z,99.90
2022-11-24T02:03:58.324Z,99.90
2022-11-24T02:07:04.641Z,99.90
2022-11-24T02:10:11.747Z,99.90
2022-11-24T02:13:16.667Z,99.90
2022-11-24T02:16:19.867Z,99.90
2022-11-24T02:19:35.553Z,99.90
2022-11-24T02:22:47.234Z,99.90
2022-11-24T02:25:59.843Z,99.90
2022-11-24T02:29:04.700Z,99.90
2022-11-24T02:32:09.825Z,99.90
2022-11-24T02:35:13.900Z,99.90
2022-11-24T02:38:17.042Z,99.90
2022-11-24T02:41:24.767Z,99.90
2022-11-24T02:44:34.115Z,99.90
2022-11-24T02:47:37.350Z,99.90
2022-11-24T02:50:40.507Z,99.90
2022-11-24T02:53:43.855Z,99.90
2022-11-24T02:56:46.996Z,99.90
2022-11-24T02:59:51.504Z,99.90
2022-11-24T03:02:54.752Z,99.90
2022-11-24T03:05:57.911Z,99.90
2022-11-24T03:09:01.135Z,99.90
2022-11-24T03:12:04.319Z,99.90
2022-11-24T03:15:09.693Z,99.90
2022-11-24T03:18:12.843Z,99.90
2022-11-24T03:21:15.995Z,99.90
2022-11-24T03:24:19.194Z,99.90
2022-11-24T03:27:22.384Z,99.90
2022-11-24T03:30:26.925Z,99.90
2022-11-24T03:33:30.420Z,99.90
2022-11-24T03:36:33.602Z,99.90
2022-11-24T03:39:36.707Z,99.90
2022-11-24T03:42:40.711Z,99.90
2022-11-24T03:45:48.371Z,99.90
2022-11-24T03:48:51.532Z,99.90
2022-11-24T03:51:54.663Z,99.90
2022-11-24T03:54:57.838Z,99.90
2022-11-24T03:58:01.005Z,99.90
2022-11-24T04:01:05.529Z,99.90
2022-11-24T04:04:11.122Z,99.90
2022-11-24T04:07:14.287Z,99.90
2022-11-24T04:10:17.572Z,99.90
2022-11-24T04:13:21.750Z,99.90
2022-11-24T04:16:26.364Z,99.90
2022-11-24T04:19:29.594Z,99.90
2022-11-24T04:22:32.751Z,99.90
2022-11-24T04:25:35.905Z,99.90
2022-11-24T04:28:39.139Z,99.90
2022-11-24T04:31:43.781Z,99.90
2022-11-24T04:34:46.949Z,99.90
2022-11-24T04:37:50.118Z,99.90
2022-11-24T04:40:53.258Z,99.90
2022-11-24T04:43:56.357Z,99.90
2022-11-24T04:47:01.130Z,99.90
2022-11-24T04:50:07.781Z,99.90
2022-11-24T04:53:11.314Z,99.90
2022-11-24T04:56:14.430Z,99.90
2022-11-24T04:59:17.920Z,99.90
2022-11-24T05:02:22.987Z,99.90
2022-11-24T05:05:26.099Z,99.90
2022-11-24T05:08:29.261Z,99.90
2022-11-24T05:11:32.384Z,99.90
2022-11-24T05:14:35.738Z,99.90
2022-11-24T05:17:40.658Z,99.90
2022-11-24T05:20:45.721Z,99.90
2022-11-24T05:23:48.835Z,99.90
2022-11-24T05:26:51.909Z,99.90
2022-11-24T05:29:55.020Z,99.90
2022-11-24T05:33:00.196Z,99.90
2022-11-24T05:36:05.324Z,99.90
2022-11-24T05:39:08.542Z,99.90
2022-11-24T05:42:29.228Z,99.90
2022-11-24T05:45:32.320Z,99.90
2022-11-24T05:48:36.812Z,99.90
2022-11-24T05:51:39.902Z,99.90
2022-11-24T05:54:43.015Z,99.90
2022-11-24T05:57:46.283Z,99.90
2022-11-24T06:00:49.413Z,99.90
2022-11-24T06:03:53.877Z,99.90
2022-11-24T06:06:57.027Z,99.90
2022-11-24T06:10:00.099Z,99.90
2022-11-24T06:13:06.728Z,99.90
2022-11-24T06:16:09.967Z,99.90
2022-11-24T06:19:14.999Z,99.90
2022-11-24T06:22:19.060Z,99.90
2022-11-24T06:25:22.177Z,99.90
2022-11-24T06:28:25.297Z,99.90
2022-11-24T06:31:28.541Z,99.90
2022-11-24T06:34:33.336Z,99.90
2022-11-24T06:37:37.489Z,99.90
2022-11-24T06:40:40.614Z,99.90
2022-11-24T06:43:43.895Z,99.90
2022-11-24T06:46:47.125Z,99.90
2022-11-24T06:49:51.626Z,99.90
2022-11-24T06:52:56.158Z,99.90
2022-11-24T06:56:00.697Z,99.90
2022-11-24T06:59:03.840Z,99.90
2022-11-24T07:02:07.403Z,99.90
2022-11-24T07:05:11.984Z,99.90
2022-11-24T07:08:18.048Z,99.90
2022-11-24T07:11:23.156Z,99.90
2022-11-24T07:14:26.347Z,99.90
2022-11-24T07:17:29.458Z,99.90
2022-11-24T07:20:33.925Z,99.90
2022-11-24T07:23:37.094Z,99.90
2022-11-24T07:26:40.345Z,99.90
2022-11-24T07:29:43.456Z,99.90
2022-11-24T07:32:46.634Z,99.90
2022-11-24T07:35:51.140Z,99.90
2022-11-24T07:38:54.258Z,99.90
2022-11-24T07:41:57.417Z,99.90
2022-11-24T07:45:00.570Z,99.90
2022-11-24T07:48:03.673Z,99.90
2022-11-24T07:51:09.190Z,99.90
2022-11-24T07:54:12.648Z,99.90
2022-11-24T07:57:15.809Z,99.90
2022-11-24T08:00:19.806Z,99.90
2022-11-24T08:03:23.950Z,99.90
2022-11-24T08:06:38.737Z,99.90
2022-11-24T08:09:45.211Z,99.90
2022-11-24T08:12:48.308Z,99.90
2022-11-24T08:15:51.444Z,99.90
2022-11-24T08:18:56.624Z,99.90
2022-11-24T08:22:01.121Z,99.90
2022-11-24T08:25:04.267Z,99.90
2022-11-24T08:28:07.423Z,99.90
2022-11-24T08:31:12.490Z,99.90
2022-11-24T08:34:15.663Z,99.90
2022-11-24T08:37:20.190Z,99.90
2022-11-24T08:40:24.339Z,99.90
2022-11-24T08:43:27.473Z,99.90
2022-11-24T08:46:30.783Z,99.90
2022-11-24T08:49:34.007Z,99.90
2022-11-24T08:52:38.622Z,99.90
2022-11-24T08:55:41.765Z,99.90
2022-11-24T08:58:44.928Z,99.90
2022-11-24T09:01:49.442Z,99.90
2022-11-24T09:04:52.688Z,99.90
2022-11-24T09:07:57.288Z,99.90
2022-11-24T09:11:04.656Z,99.90
2022-11-24T09:14:07.888Z,99.90
2022-11-24T09:17:11.258Z,99.90
2022-11-24T09:23:37.043Z,99.90
2022-11-24T09:26:44.744Z,99.90
2022-11-24T09:29:50.658Z,99.90
2022-11-24T09:32:53.758Z,99.90
2022-11-24T09:35:56.896Z,99.90
2022-11-24T09:39:01.445Z,99.90
2022-11-24T09:42:11.331Z,99.90
2022-11-24T09:45:49.339Z,99.90
2022-11-24T09:48:55.017Z,99.90
2022-11-24T09:51:59.186Z,99.60
2022-11-24T09:55:06.247Z,99.70
2022-11-24T09:58:25.547Z,99.40
2022-11-24T10:01:32.053Z,99.90
2022-11-24T10:04:40.658Z,99.90
2022-11-24T10:07:49.533Z,99.90
2022-11-24T10:10:59.541Z,99.90
2022-11-24T10:14:25.441Z,99.90
2022-11-24T10:17:45.539Z,99.90
2022-11-24T10:20:58.867Z,99.30
2022-11-24T10:24:25.681Z,99.00
2022-11-24T10:27:36.739Z,98.30
2022-11-24T10:30:40.354Z,97.90
2022-11-24T10:33:44.979Z,98.10
2022-11-24T10:36:56.101Z,97.60
2022-11-24T10:40:05.432Z,97.90
2022-11-24T10:43:13.043Z,97.90
2022-11-24T10:46:20.356Z,97.30
2022-11-24T10:49:28.233Z,95.60
2022-11-24T10:52:37.885Z,96.10
2022-11-24T10:56:01.887Z,95.40
2022-11-24T10:59:23.039Z,95.60
2022-11-24T11:02:32.521Z,91.40
2022-11-24T11:05:42.946Z,69.20
2022-11-24T11:08:46.063Z,56.50
2022-11-24T11:11:49.978Z,45.10
2022-11-24T11:14:54.502Z,37.20
2022-11-24T11:18:00.134Z,32.20
2022-11-24T11:21:04.906Z,27.90
2022-11-24T11:24:17.499Z,26.70
2022-11-24T11:27:22.600Z,24.50
2022-11-24T11:34:03.797Z,21.60
2022-11-24T11:37:11.105Z,21.20
2022-11-24T11:40:18.003Z,21.00
2022-11-24T11:43:27.195Z,21.00
2022-11-24T11:46:33.717Z,20.80
2022-11-24T11:49:39.637Z,21.50
2022-11-24T11:53:00.840Z,21.30
2022-11-24T11:56:12.218Z,21.70
2022-11-24T11:59:38.127Z,21.30
2022-11-24T12:03:22.715Z,21.60
2022-11-24T12:06:43.865Z,21.50
2022-11-24T12:09:58.978Z,22.60
2022-11-24T12:13:25.829Z,22.70
2022-11-24T12:16:35.952Z,23.50
2022-11-24T12:19:58.290Z,26.50
2022-11-24T12:23:11.432Z,27.70
2022-11-24T12:26:22.713Z,27.40
2022-11-24T12:29:50.463Z,28.50
2022-11-24T12:33:29.281Z,27.10
2022-11-24T12:36:46.123Z,27.60
2022-11-24T12:39:58.067Z,26.20
2022-11-24T12:43:10.511Z,24.50
2022-11-24T12:46:20.819Z,23.70
2022-11-24T12:49:31.699Z,22.50
2022-11-24T12:52:40.991Z,23.00
2022-11-24T12:55:44.933Z,23.40
2022-11-24T12:58:56.812Z,24.30
2022-11-24T13:02:12.115Z,24.90
2022-11-24T13:05:25.007Z,27.70
2022-11-24T13:08:30.276Z,29.80
2022-11-24T13:11:42.455Z,32.90
2022-11-24T13:14:47.488Z,35.30
2022-11-24T13:18:05.503Z,34.30
2022-11-24T13:21:47.361Z,33.50
2022-11-24T13:25:13.089Z,32.70
2022-11-24T13:29:01.781Z,32.80
2022-11-24T13:32:52.028Z,33.10
2022-11-24T13:36:31.123Z,30.80
2022-11-24T13:49:22.798Z,25.90
2022-11-24T13:52:45.102Z,25.30
2022-11-24T13:55:58.866Z,25.40
2022-11-24T13:59:15.844Z,26.10
2022-11-24T14:02:24.533Z,27.00
2022-11-24T14:05:37.780Z,28.20
2022-11-24T14:08:41.063Z,28.70
2022-11-24T14:11:44.675Z,30.80
2022-11-24T14:14:48.933Z,33.70
2022-11-24T14:17:52.083Z,37.20
2022-11-24T14:20:56.861Z,39.60
2022-11-24T14:24:01.998Z,41.10
2022-11-24T14:27:05.217Z,43.00
2022-11-24T14:30:20.462Z,44.60
2022-11-24T14:33:23.622Z,46.40
2022-11-24T14:36:28.133Z,48.30
2022-11-24T14:39:31.365Z,50.40
2022-11-24T14:42:34.795Z,51.70
2022-11-24T14:45:39.276Z,54.00
2022-11-24T14:48:49.808Z,55.90
2022-11-24T14:51:57.700Z,57.60
2022-11-24T14:55:21.462Z,59.00
2022-11-24T14:58:37.678Z,60.20
2022-11-24T15:01:43.786Z,63.20
2022-11-24T15:05:03.711Z,66.00
2022-11-24T15:08:14.245Z,68.20
2022-11-24T15:11:17.647Z,71.70
2022-11-24T15:14:33.850Z,74.70
2022-11-24T15:17:37.370Z,77.00
2022-11-24T15:20:45.566Z,79.30
2022-11-24T15:24:14.608Z,81.60
2022-11-24T15:27:17.704Z,84.80
2022-11-24T15:30:21.039Z,88.50
2022-11-24T15:33:24.914Z,89.40
2022-11-24T15:36:28.017Z,90.80
2022-11-24T15:39:32.498Z,91.60
2022-11-24T15:42:35.633Z,92.60
2022-11-24T15:45:38.947Z,93.20
2022-11-24T15:48:42.069Z,93.80
2022-11-24T15:51:47.051Z,94.70
2022-11-24T15:54:55.730Z,95.20
2022-11-24T15:57:58.868Z,95.60
2022-11-24T16:01:02.048Z,96.20
2022-11-24T16:04:05.584Z,96.90
2022-11-24T16:07:12.941Z,97.20
2022-11-24T16:10:24.878Z,97.60
2022-11-24T16:13:28.281Z,98.00
2022-11-24T16:16:31.525Z,98.60
2022-11-24T16:19:38.746Z,98.70
2022-11-24T16:22:45.694Z,99.20
2022-11-24T16:25:50.902Z,99.50
2022-11-24T16:28:54.365Z,99.80
2022-11-24T16:31:57.954Z,99.90
2022-11-24T16:35:01.740Z,99.90
2022-11-24T16:38:05.359Z,99.90
2022-11-24T16:41:10.773Z,99.90
2022-11-24T16:44:14.919Z,99.90
2022-11-24T16:47:18.763Z,99.90
2022-11-24T16:50:22.759Z,99.90
2022-11-24T16:53:26.604Z,99.90
2022-11-24T16:56:32.965Z,99.90
2022-11-24T16:59:36.507Z,99.90
2022-11-24T17:02:39.940Z,99.90
2022-11-24T17:05:43.275Z,99.90
2022-11-24T17:08:47.625Z,99.90
2022-11-24T17:11:52.567Z,99.90
2022-11-24T17:15:24.492Z,99.90
2022-11-24T17:18:25.236Z,99.90
2022-11-24T17:21:29.300Z,99.90
2022-11-24T17:24:41.670Z,99.90
2022-11-24T17:27:47.005Z,99.90
2022-11-24T17:30:50.901Z,99.90
2022-11-24T17:33:56.285Z,99.90
2022-11-24T17:37:00.494Z,99.90
2022-11-24T17:40:27.219Z,99.90
2022-11-24T17:43:30.361Z,99.90
2022-11-24T17:46:35.946Z,99.90
2022-11-24T17:49:40.242Z,99.90
2022-11-24T17:52:47.367Z,99.90
2022-11-24T17:55:50.952Z,99.90
2022-11-24T17:58:57.231Z,99.90
2022-11-24T18:02:02.443Z,99.90
2022-11-24T18:05:06.870Z,99.90
2022-11-24T18:08:12.334Z,99.90
2022-11-24T18:11:21.264Z,99.90
2022-11-24T18:14:29.231Z,99.90
2022-11-24T18:17:32.995Z,99.90
2022-11-24T18:20:38.552Z,99.90
2022-11-24T18:23:43.822Z,99.90
2022-11-24T18:26:48.846Z,99.90
2022-11-24T18:29:56.219Z,99.90
2022-11-24T18:33:05.165Z,99.90
2022-11-24T18:36:11.294Z,99.90
2022-11-24T18:39:19.965Z,99.90
2022-11-24T18:42:28.640Z,99.90
2022-11-24T18:45:34.483Z,99.90
2022-11-24T18:48:39.571Z,99.90
2022-11-24T18:51:47.306Z,99.90
2022-11-24T18:54:52.756Z,99.90
2022-11-24T18:58:01.542Z,99.90
2022-11-24T19:01:15.234Z,99.90
2022-11-24T19:04:19.307Z,99.90
2022-11-24T19:07:24.333Z,99.90
2022-11-24T19:10:31.425Z,99.90
2022-11-24T19:13:39.057Z,99.90
2022-11-24T19:16:46.905Z,99.90
2022-11-24T19:19:54.387Z,99.90
2022-11-24T19:23:00.421Z,99.90
2022-11-24T19:26:04.506Z,99.90
2022-11-24T19:29:10.244Z,99.90
2022-11-24T19:32:17.544Z,99.90
2022-11-24T19:35:21.965Z,99.90
2022-11-24T19:38:30.075Z,99.90
2022-11-24T19:41:36.147Z,99.90
2022-11-24T19:44:40.703Z,99.90
2022-11-24T19:47:48.794Z,99.90
2022-11-24T19:51:01.163Z,99.90
2022-11-24T19:54:07.510Z,99.90
2022-11-24T19:57:12.955Z,99.90
2022-11-24T20:00:19.033Z,99.90
2022-11-24T20:03:26.231Z,99.90
2022-11-24T20:06:32.965Z,99.90
2022-11-24T20:09:38.665Z,99.90
2022-11-24T20:12:45.113Z,99.90
2022-11-24T20:15:50.007Z,99.90
2022-11-24T20:18:57.668Z,99.90
2022-11-24T20:22:01.692Z,99.90
2022-11-24T20:25:06.871Z,99.90
2022-11-24T20:28:12.209Z,99.90
2022-11-24T20:31:18.829Z,99.90
2022-11-24T20:34:26.892Z,99.90
2022-11-24T20:40:53.421Z,99.90
2022-11-24T20:44:02.480Z,99.90
2022-11-24T20:47:08.633Z,99.90
2022-11-24T20:50:17.669Z,99.90
2022-11-24T20:53:23.563Z,99.90
2022-11-24T20:56:30.133Z,99.90
2022-11-24T20:59:35.068Z,99.90
2022-11-24T21:02:40.470Z,99.90
2022-11-24T21:05:45.730Z,99.90
2022-11-24T21:08:49.598Z,99.90
2022-11-24T21:11:53.767Z,99.90
2022-11-24T21:14:57.056Z,99.90
2022-11-24T21:18:00.523Z,99.90
2022-11-24T21:21:05.770Z,99.90
2022-11-24T21:24:12.629Z,99.90
2022-11-24T21:27:16.843Z,99.90
2022-11-24T21:30:20.912Z,99.90
2022-11-24T21:33:25.000Z,99.90
2022-11-24T21:36:30.044Z,99.90
2022-11-24T21:39:33.335Z,99.90
2022-11-24T21:42:36.687Z,99.90
2022-11-24T21:45:39.910Z,99.90
2022-11-24T21:48:43.288Z,99.90
2022-11-24T21:51:48.221Z,99.90
2022-11-24T21:54:51.432Z,99.90
2022-11-24T21:57:54.551Z,99.90
2022-11-24T22:01:03.436Z,99.90
2022-11-24T22:04:06.794Z,99.90
2022-11-24T22:07:11.289Z,99.90
2022-11-24T22:10:14.462Z,99.90
2022-11-24T22:13:17.640Z,99.90
2022-11-24T22:16:22.367Z,99.90
2022-11-24T22:19:25.552Z,99.90
2022-11-24T22:22:30.058Z,99.90
2022-11-24T22:25:34.210Z,99.90
2022-11-24T22:28:38.310Z,99.90
2022-11-24T22:31:41.535Z,99.90
2022-11-24T22:34:44.728Z,99.90
2022-11-24T22:37:49.226Z,99.90
2022-11-24T22:40:52.387Z,99.90
2022-11-24T22:43:55.557Z,99.90
2022-11-24T22:47:00.047Z,99.90
2022-11-24T22:50:03.230Z,99.90
2022-11-24T22:53:07.711Z,99.90
2022-11-24T22:56:12.139Z,99.90
2022-11-24T22:59:15.285Z,99.90
2022-11-24T23:02:18.417Z,99.90
2022-11-24T23:05:21.518Z,99.90
2022-11-24T23:08:26.074Z,99.90
2022-11-24T23:11:37.210Z,99.90
2022-11-24T23:14:41.007Z,99.90
2022-11-24T23:17:44.161Z,99.90
2022-11-24T23:20:47.318Z,99.90
2022-11-24T23:23:52.476Z,99.90
2022-11-24T23:26:55.577Z,99.90
2022-11-24T23:29:58.672Z,99.90
2022-11-24T23:33:01.759Z,99.90
2022-11-24T23:36:07.032Z,99.90
2022-11-24T23:39:14.400Z,99.90
2022-11-24T23:42:17.550Z,99.90
2022-11-24T23:45:20.718Z,99.90
2022-11-24T23:48:23.900Z,99.90
2022-11-24T23:51:28.522Z,99.90
2022-11-24T23:57:53.333Z,99.90
